Nearby METAR Reports

 

LFSI - St. Dizier/Robin, France
Distance from station: SO 26km
Mise à jour: 28/01/2022 22:00
Mist, couvert
Mist, couvert
 Wind from OSO
Vent: OSO 6 km/h
Température: 3°C
Point de rosée: 3°C
Humidité: 100%
Baromètre: 1037 hPa
Résumé: Mist
Clouds: couvert
Visibility: 5 km
Cloud details: couvert 122 m
2022/01/28 21:00 LFSI 282100Z AUTO 25003KT 5000 BR OVC004 03/03 Q1037
LFSO - Nancy/Ochey (faf, France
Distance from station: ESE 62km
Mise à jour: 28/01/2022 22:00
couvert
couvert
 Wind from SO
Vent: SO 15 km/h
Température: 1°C
Wind Chill: -3°C
Point de rosée: 1°C
Humidité: 100%
Baromètre: 1036 hPa
Clouds: couvert
Visibility: 8 km
Cloud details: couvert 152 m
2022/01/28 21:00 LFSO 282100Z AUTO 23008KT 8000 OVC005 01/01 Q1036
LFOK - Chalons/Vatry Fa, France
Distance from station: O 73km
Mise à jour: 28/01/2022 22:00
Mist, couvert
Mist, couvert
 Wind from SO
Vent: SO 17 km/h
Température: 3°C
Wind Chill: -1°C
Point de rosée: 3°C
Humidité: 100%
Baromètre: 1037 hPa
Résumé: Mist
Clouds: couvert
Visibility: 5 km
Cloud details: couvert 91 m
2022/01/28 21:00 LFOK 282100Z AUTO 23009KT 5000 BR OVC003 03/03 Q1037 TEMPO 0800 DZ FG VV///
 
LFSN - Nancy/Essey, France
Distance from station: E 77km
Mise à jour: 28/01/2022 22:00
couvert
couvert
 Wind from SO
Vent: SO 7 km/h
Température: 3°C
Wind Chill: 1°C
Point de rosée: 2°C
Humidité: 93%
Baromètre: 1036 hPa
Clouds: couvert
Visibility: 10 km
Cloud details: couvert 244 m
2022/01/28 21:00 LFSN 282100Z AUTO 22004KT 190V250 9999 OVC008 03/02 Q1036
LFSG - Epinal/Mirecourt, France
Distance from station: SE 81km
Mise à jour: 28/01/2022 22:00
couvert
couvert
 Wind from SSO
Vent: SSO 9 km/h
Température: 1°C
Wind Chill: -2°C
Point de rosée: 0°C
Humidité: 93%
Baromètre: 1036 hPa
Clouds: couvert
Visibility: 10 km
Cloud details: couvert 152 m
2022/01/28 21:00 LFSG 282100Z AUTO 21005KT 9999 OVC005 01/00 Q1036
LFJL - Metz-Nancy-Lorra, France
Distance from station: ENE 82km
Mise à jour: 28/01/2022 22:00
couvert
couvert
 Wind from SSO
Vent: SSO 17 km/h
Température: 2°C
Wind Chill: -2°C
Point de rosée: 2°C
Humidité: 100%
Baromètre: 1036 hPa
Clouds: couvert
Visibility: 9 km
Cloud details: couvert 183 m
2022/01/28 21:00 LFJL 282100Z AUTO 21009KT 9000 OVC006 02/02 Q1036 TEMPO 3000 BR OVC003
 
LFQA - Reims/Prunay, France
Distance from station: ONO 89km
Mise à jour: 28/01/2022 22:00
nuageux
nuageux
 Wind from SSO
Vent: SSO 13 km/h
Température: 3°C
Wind Chill: -1°C
Point de rosée: 3°C
Humidité: 100%
Baromètre: 1036 hPa
Clouds: nuageux
Visibility: 6 km
Cloud details: Few Clouds 183 m
nuageux 792 m
nuageux 4267 m
2022/01/28 21:00 LFQA 282100Z AUTO 21007KT 180V240 6000 FEW006 BKN026 BKN140 03/03 Q1036
LFQB - Troyes/Barberey, France
Distance from station: OSO 99km
Mise à jour: 28/01/2022 22:00
couvert
couvert
 Wind from OSO
Vent: OSO 11 km/h
Température: 4°C
Wind Chill: 1°C
Point de rosée: 2°C
Humidité: 87%
Baromètre: 1037 hPa
Clouds: couvert
Visibility: 10 km
Cloud details: couvert 366 m
2022/01/28 21:00 LFQB 282100Z AUTO 24006KT 200V290 9999 OVC012 04/02 Q1037